Airfield :
LOGIN :

Register | Disclaimer

   EN    FR    IT 

 










Legend :    VFR   Marginal VFR   IFR   Intensive IFR   Very Intensive IFR
Visi :
Ceiling :
>= 8 km
>= 3000ft
5 to 8 km
1000 to 3000 ft
1500m to 5 km
500 to 1000 ft
800 to 1500m
200 to 500 ft
< 800m
< 200 ft
Symbols :   Thunderstorms  Fog  Heavy snow  Heavy precipitations  Wind > 20 kt
SIGMETs :     Misc.  Thunderstorms  Icing  Turbulence  Mountain Waves  Volcanic Ashes






- Airport Elevation : 741 ft
- IATA code : JKG


ESGJ - Jönköping

CURRENT METAR :
  • 161220Z 03007KT 9999 FEW024 18/16 Q1013

EXPIRED METARs :
  • 161150Z 09006KT 9999 FEW035 19/15 Q1013
  • 161120Z 06006KT 9999 FEW040 18/15 Q1013
  • 161050Z 08004KT 9999 FEW019 18/16 Q1013
  • 161020Z 07004KT 040V120 9999 FEW019 SCT170 18/16 Q1013
  • 160950Z VRB03KT 9999 SCT019 SCT170 18/15 Q1013
  • 160920Z VRB03KT 9999 SCT017 17/15 Q1013
  • 160850Z VRB01KT 9999 SCT015 17/15 Q1013
  • 160820Z VRB01KT 9999 SCT014 17/15 Q1014
  • 160750Z VRB02KT 9999 BKN012 16/15 Q1014
  • 160720Z VRB03KT 9999 BKN010 15/14 Q1014

TAF TAF ESGJ
Valid from the 16 at 12:00 until the 16 at 21:00 UTC


161130Z 1612/1621 07005KT 9999 -RA FEW019
BECMG 1618/1620 BKN005



MET'MAP, your aeronautical weather chart ! - Copyright ORBIFLY December 2007 - Disclaimer

ORBIFLY MET'MAP TEAM :

Programming & Development : Alexandra Zaïnal
Original concept : Baudouin d'Aumeries
Technical & hardware support : Manuel Goepfert
Assistance : Marc-Olivier Méhu




SOURCES & CREDITS :

   NOAA